Minnetrista, Minnesota
Current Conditions -  °F | °C
As of 6:53 AM on Saturday 25 Oct 2014 (Local Time) from KFCM Reporting Station
Clear Clear  
Wind Chill: 54°   Ceiling: Unl
Heat Index: 54°   Visibility: 10mi
Dew Point: 35°   Wind: 8mph
Humidity: 49%   Direction: 300°WNW
Pressure: 29.99"   Gusts: NA
Location:  44.8587°N, 93.7796°W
Report Text: KFCM 251153Z 30007KT 10SM CLR 12/02 A2999 RMK AO2 SLP155 T01220017 10161 20122 51015
Loading
Personal Weather Stations






























Interactive Weather Map New forecast layout! Learn more

10-Day Weather Forecast

Advertisements
Track Severe Weather on mobile